sensor_id;sensor_type;location;lat;lon;timestamp;P1;durP1;ratioP1;P2;durP2;ratioP2
11228;SDS011;5671;47.936;8.716;2023-04-06T00:00:25;3.43;;;2.77;;
11228;SDS011;5671;47.936;8.716;2023-04-06T00:02:52;3.13;;;2.80;;
11228;SDS011;5671;47.936;8.716;2023-04-06T00:05:19;3.10;;;2.80;;
11228;SDS011;5671;47.936;8.716;2023-04-06T00:07:48;3.30;;;3.00;;
11228;SDS011;5671;47.936;8.716;2023-04-06T00:10:15;3.27;;;2.70;;
11228;SDS011;5671;47.936;8.716;2023-04-06T00:12:42;3.80;;;2.70;;
11228;SDS011;5671;47.936;8.716;2023-04-06T00:15:10;3.60;;;3.13;;
11228;SDS011;5671;47.936;8.716;2023-04-06T00:17:38;3.90;;;3.30;;
11228;SDS011;5671;47.936;8.716;2023-04-06T00:20:06;5.60;;;3.17;;
11228;SDS011;5671;47.936;8.716;2023-04-06T00:22:33;3.13;;;2.60;;
11228;SDS011;5671;47.936;8.716;2023-04-06T00:25:00;6.37;;;3.00;;
11228;SDS011;5671;47.936;8.716;2023-04-06T00:27:27;3.80;;;3.13;;
11228;SDS011;5671;47.936;8.716;2023-04-06T00:29:54;4.13;;;3.10;;
11228;SDS011;5671;47.936;8.716;2023-04-06T00:32:21;4.50;;;3.40;;
11228;SDS011;5671;47.936;8.716;2023-04-06T00:34:50;3.63;;;3.20;;
11228;SDS011;5671;47.936;8.716;2023-04-06T00:37:16;3.73;;;3.23;;
11228;SDS011;5671;47.936;8.716;2023-04-06T00:39:44;3.97;;;3.37;;
11228;SDS011;5671;47.936;8.716;2023-04-06T00:42:11;3.50;;;3.20;;
11228;SDS011;5671;47.936;8.716;2023-04-06T00:44:39;3.43;;;3.13;;
11228;SDS011;5671;47.936;8.716;2023-04-06T00:47:06;4.57;;;3.27;;
11228;SDS011;5671;47.936;8.716;2023-04-06T00:49:33;5.47;;;3.07;;
11228;SDS011;5671;47.936;8.716;2023-04-06T00:52:02;3.37;;;3.07;;
11228;SDS011;5671;47.936;8.716;2023-04-06T00:54:29;3.37;;;2.77;;
11228;SDS011;5671;47.936;8.716;2023-04-06T00:56:56;3.17;;;2.87;;
11228;SDS011;5671;47.936;8.716;2023-04-06T00:59:23;3.17;;;2.87;;
11228;SDS011;5671;47.936;8.716;2023-04-06T01:01:50;3.23;;;2.90;;
11228;SDS011;5671;47.936;8.716;2023-04-06T01:04:17;3.97;;;2.67;;
11228;SDS011;5671;47.936;8.716;2023-04-06T01:06:44;3.07;;;2.77;;
11228;SDS011;5671;47.936;8.716;2023-04-06T01:09:13;3.37;;;3.03;;
11228;SDS011;5671;47.936;8.716;2023-04-06T01:11:40;4.03;;;2.93;;
11228;SDS011;5671;47.936;8.716;2023-04-06T01:14:06;3.23;;;2.93;;
11228;SDS011;5671;47.936;8.716;2023-04-06T01:16:34;3.20;;;2.90;;
11228;SDS011;5671;47.936;8.716;2023-04-06T01:19:06;3.33;;;2.63;;
11228;SDS011;5671;47.936;8.716;2023-04-06T01:21:34;3.27;;;2.90;;
11228;SDS011;5671;47.936;8.716;2023-04-06T01:24:03;4.67;;;2.77;;
11228;SDS011;5671;47.936;8.716;2023-04-06T01:26:31;3.20;;;2.90;;
11228;SDS011;5671;47.936;8.716;2023-04-06T01:28:58;4.63;;;2.90;;
11228;SDS011;5671;47.936;8.716;2023-04-06T01:31:25;3.57;;;3.10;;
11228;SDS011;5671;47.936;8.716;2023-04-06T01:33:52;4.07;;;3.10;;
11228;SDS011;5671;47.936;8.716;2023-04-06T01:36:19;3.60;;;2.70;;
11228;SDS011;5671;47.936;8.716;2023-04-06T01:38:47;2.77;;;2.47;;
11228;SDS011;5671;47.936;8.716;2023-04-06T01:41:15;4.67;;;2.83;;
11228;SDS011;5671;47.936;8.716;2023-04-06T01:43:42;3.20;;;2.80;;
11228;SDS011;5671;47.936;8.716;2023-04-06T01:46:10;3.50;;;2.83;;
11228;SDS011;5671;47.936;8.716;2023-04-06T01:48:37;5.63;;;3.40;;
11228;SDS011;5671;47.936;8.716;2023-04-06T01:51:04;3.60;;;3.30;;
11228;SDS011;5671;47.936;8.716;2023-04-06T01:53:31;4.70;;;3.97;;
11228;SDS011;5671;47.936;8.716;2023-04-06T01:55:58;3.93;;;3.23;;
11228;SDS011;5671;47.936;8.716;2023-04-06T01:58:26;3.77;;;3.20;;
11228;SDS011;5671;47.936;8.716;2023-04-06T02:00:56;3.17;;;2.80;;
11228;SDS011;5671;47.936;8.716;2023-04-06T02:03:23;3.20;;;2.80;;
11228;SDS011;5671;47.936;8.716;2023-04-06T02:05:49;2.97;;;2.67;;
11228;SDS011;5671;47.936;8.716;2023-04-06T02:08:16;3.60;;;3.00;;
11228;SDS011;5671;47.936;8.716;2023-04-06T02:10:43;3.10;;;2.80;;
11228;SDS011;5671;47.936;8.716;2023-04-06T02:13:10;5.57;;;2.90;;
11228;SDS011;5671;47.936;8.716;2023-04-06T02:15:38;3.80;;;3.30;;
11228;SDS011;5671;47.936;8.716;2023-04-06T02:18:05;3.10;;;2.80;;
11228;SDS011;5671;47.936;8.716;2023-04-06T02:20:32;2.87;;;2.57;;
11228;SDS011;5671;47.936;8.716;2023-04-06T02:22:59;4.00;;;3.20;;
11228;SDS011;5671;47.936;8.716;2023-04-06T02:25:26;3.10;;;2.80;;
11228;SDS011;5671;47.936;8.716;2023-04-06T02:27:53;4.85;;;2.92;;
11228;SDS011;5671;47.936;8.716;2023-04-06T02:30:20;4.20;;;2.73;;
11228;SDS011;5671;47.936;8.716;2023-04-06T02:32:49;4.17;;;3.20;;
11228;SDS011;5671;47.936;8.716;2023-04-06T02:35:16;3.23;;;2.93;;
11228;SDS011;5671;47.936;8.716;2023-04-06T02:37:43;3.00;;;2.63;;
11228;SDS011;5671;47.936;8.716;2023-04-06T02:40:10;3.50;;;3.20;;
11228;SDS011;5671;47.936;8.716;2023-04-06T02:42:37;5.03;;;3.17;;
11228;SDS011;5671;47.936;8.716;2023-04-06T02:45:04;5.47;;;3.17;;
11228;SDS011;5671;47.936;8.716;2023-04-06T02:47:32;3.47;;;2.83;;
11228;SDS011;5671;47.936;8.716;2023-04-06T02:50:00;4.07;;;3.03;;
11228;SDS011;5671;47.936;8.716;2023-04-06T02:52:28;4.60;;;2.77;;
11228;SDS011;5671;47.936;8.716;2023-04-06T02:54:55;5.23;;;2.80;;
11228;SDS011;5671;47.936;8.716;2023-04-06T02:57:21;3.45;;;3.08;;
11228;SDS011;5671;47.936;8.716;2023-04-06T02:59:48;3.60;;;2.87;;
11228;SDS011;5671;47.936;8.716;2023-04-06T03:02:15;3.87;;;2.73;;
11228;SDS011;5671;47.936;8.716;2023-04-06T03:04:44;4.23;;;2.90;;
11228;SDS011;5671;47.936;8.716;2023-04-06T03:07:12;4.67;;;3.00;;
11228;SDS011;5671;47.936;8.716;2023-04-06T03:09:39;3.53;;;2.90;;
11228;SDS011;5671;47.936;8.716;2023-04-06T03:12:06;3.17;;;2.80;;
11228;SDS011;5671;47.936;8.716;2023-04-06T03:14:33;3.23;;;2.90;;
11228;SDS011;5671;47.936;8.716;2023-04-06T03:17:00;3.47;;;3.08;;
11228;SDS011;5671;47.936;8.716;2023-04-06T03:19:27;4.30;;;3.03;;
11228;SDS011;5671;47.936;8.716;2023-04-06T03:21:54;4.13;;;3.00;;
11228;SDS011;5671;47.936;8.716;2023-04-06T03:24:22;2.97;;;2.50;;
11228;SDS011;5671;47.936;8.716;2023-04-06T03:26:49;4.17;;;3.17;;
11228;SDS011;5671;47.936;8.716;2023-04-06T03:29:16;3.40;;;3.10;;
11228;SDS011;5671;47.936;8.716;2023-04-06T03:31:42;3.65;;;3.03;;
11228;SDS011;5671;47.936;8.716;2023-04-06T03:34:09;4.03;;;2.78;;
11228;SDS011;5671;47.936;8.716;2023-04-06T03:36:36;3.42;;;2.90;;
11228;SDS011;5671;47.936;8.716;2023-04-06T03:39:03;5.70;;;3.03;;
11228;SDS011;5671;47.936;8.716;2023-04-06T03:41:31;4.90;;;3.33;;
11228;SDS011;5671;47.936;8.716;2023-04-06T03:43:58;3.83;;;3.40;;
11228;SDS011;5671;47.936;8.716;2023-04-06T03:46:25;4.07;;;3.00;;
11228;SDS011;5671;47.936;8.716;2023-04-06T03:48:52;3.60;;;2.93;;
11228;SDS011;5671;47.936;8.716;2023-04-06T03:51:19;3.58;;;3.17;;
11228;SDS011;5671;47.936;8.716;2023-04-06T03:53:46;3.55;;;3.15;;
11228;SDS011;5671;47.936;8.716;2023-04-06T03:56:13;4.55;;;3.58;;
11228;SDS011;5671;47.936;8.716;2023-04-06T03:58:41;4.40;;;3.55;;
11228;SDS011;5671;47.936;8.716;2023-04-06T04:01:09;7.38;;;3.35;;
11228;SDS011;5671;47.936;8.716;2023-04-06T04:03:36;5.67;;;3.47;;
11228;SDS011;5671;47.936;8.716;2023-04-06T04:06:03;4.40;;;3.57;;
11228;SDS011;5671;47.936;8.716;2023-04-06T04:08:30;6.88;;;3.55;;
11228;SDS011;5671;47.936;8.716;2023-04-06T04:10:57;4.35;;;3.63;;
11228;SDS011;5671;47.936;8.716;2023-04-06T04:13:24;5.60;;;3.37;;
11228;SDS011;5671;47.936;8.716;2023-04-06T04:15:52;4.23;;;3.70;;
11228;SDS011;5671;47.936;8.716;2023-04-06T04:18:20;4.70;;;3.10;;
11228;SDS011;5671;47.936;8.716;2023-04-06T04:20:46;4.57;;;3.72;;
11228;SDS011;5671;47.936;8.716;2023-04-06T04:23:13;4.37;;;3.27;;
11228;SDS011;5671;47.936;8.716;2023-04-06T04:25:40;3.67;;;3.23;;
11228;SDS011;5671;47.936;8.716;2023-04-06T04:28:07;4.53;;;3.30;;
11228;SDS011;5671;47.936;8.716;2023-04-06T04:30:34;3.33;;;3.03;;
11228;SDS011;5671;47.936;8.716;2023-04-06T04:33:02;3.97;;;3.58;;
11228;SDS011;5671;47.936;8.716;2023-04-06T04:35:29;4.38;;;3.17;;
11228;SDS011;5671;47.936;8.716;2023-04-06T04:37:56;3.93;;;3.30;;
11228;SDS011;5671;47.936;8.716;2023-04-06T04:40:23;4.47;;;3.67;;
11228;SDS011;5671;47.936;8.716;2023-04-06T04:42:50;5.40;;;3.92;;
11228;SDS011;5671;47.936;8.716;2023-04-06T04:45:17;5.28;;;4.28;;
11228;SDS011;5671;47.936;8.716;2023-04-06T04:47:44;4.95;;;4.03;;
11228;SDS011;5671;47.936;8.716;2023-04-06T04:50:12;5.97;;;4.10;;
11228;SDS011;5671;47.936;8.716;2023-04-06T04:52:39;4.95;;;3.83;;
11228;SDS011;5671;47.936;8.716;2023-04-06T04:55:06;4.90;;;3.53;;
11228;SDS011;5671;47.936;8.716;2023-04-06T04:57:33;5.63;;;4.28;;
11228;SDS011;5671;47.936;8.716;2023-04-06T05:00:00;3.80;;;3.30;;
11228;SDS011;5671;47.936;8.716;2023-04-06T05:02:27;4.57;;;3.55;;
11228;SDS011;5671;47.936;8.716;2023-04-06T05:04:54;5.82;;;3.33;;
11228;SDS011;5671;47.936;8.716;2023-04-06T05:07:22;3.90;;;3.28;;
11228;SDS011;5671;47.936;8.716;2023-04-06T05:09:49;4.07;;;3.50;;
11228;SDS011;5671;47.936;8.716;2023-04-06T05:12:16;5.70;;;3.55;;
11228;SDS011;5671;47.936;8.716;2023-04-06T05:14:45;3.75;;;3.38;;
11228;SDS011;5671;47.936;8.716;2023-04-06T05:17:12;4.25;;;3.10;;
11228;SDS011;5671;47.936;8.716;2023-04-06T05:19:39;3.90;;;3.15;;
11228;SDS011;5671;47.936;8.716;2023-04-06T05:22:06;3.90;;;3.35;;
11228;SDS011;5671;47.936;8.716;2023-04-06T05:24:34;3.60;;;3.20;;
11228;SDS011;5671;47.936;8.716;2023-04-06T05:27:02;3.97;;;3.20;;
11228;SDS011;5671;47.936;8.716;2023-04-06T05:29:30;4.50;;;3.57;;
11228;SDS011;5671;47.936;8.716;2023-04-06T05:31:57;4.65;;;3.58;;
11228;SDS011;5671;47.936;8.716;2023-04-06T05:34:24;6.35;;;3.42;;
11228;SDS011;5671;47.936;8.716;2023-04-06T05:36:51;4.00;;;3.40;;
11228;SDS011;5671;47.936;8.716;2023-04-06T05:39:18;5.60;;;3.80;;
11228;SDS011;5671;47.936;8.716;2023-04-06T05:41:46;6.13;;;4.07;;
11228;SDS011;5671;47.936;8.716;2023-04-06T05:44:14;8.10;;;4.10;;
11228;SDS011;5671;47.936;8.716;2023-04-06T05:46:40;4.63;;;3.55;;
11228;SDS011;5671;47.936;8.716;2023-04-06T05:49:07;4.20;;;3.60;;
11228;SDS011;5671;47.936;8.716;2023-04-06T05:51:34;4.80;;;3.72;;
11228;SDS011;5671;47.936;8.716;2023-04-06T05:54:01;4.80;;;4.30;;
11228;SDS011;5671;47.936;8.716;2023-04-06T05:56:28;8.73;;;5.90;;
11228;SDS011;5671;47.936;8.716;2023-04-06T05:58:58;5.05;;;4.35;;
11228;SDS011;5671;47.936;8.716;2023-04-06T06:01:25;5.30;;;3.50;;
11228;SDS011;5671;47.936;8.716;2023-04-06T06:03:52;5.18;;;3.95;;
11228;SDS011;5671;47.936;8.716;2023-04-06T06:06:18;5.35;;;4.05;;
11228;SDS011;5671;47.936;8.716;2023-04-06T06:08:45;4.43;;;3.37;;
11228;SDS011;5671;47.936;8.716;2023-04-06T06:11:12;4.00;;;3.53;;
11228;SDS011;5671;47.936;8.716;2023-04-06T06:13:39;6.80;;;4.07;;
11228;SDS011;5671;47.936;8.716;2023-04-06T06:16:07;4.38;;;3.53;;
11228;SDS011;5671;47.936;8.716;2023-04-06T06:18:34;5.23;;;4.10;;
11228;SDS011;5671;47.936;8.716;2023-04-06T06:21:02;4.83;;;4.20;;
11228;SDS011;5671;47.936;8.716;2023-04-06T06:23:29;5.22;;;4.07;;
11228;SDS011;5671;47.936;8.716;2023-04-06T06:25:56;7.30;;;4.17;;
11228;SDS011;5671;47.936;8.716;2023-04-06T06:28:23;5.97;;;4.13;;
11228;SDS011;5671;47.936;8.716;2023-04-06T06:30:51;5.47;;;4.17;;
11228;SDS011;5671;47.936;8.716;2023-04-06T06:33:19;8.27;;;4.33;;
11228;SDS011;5671;47.936;8.716;2023-04-06T06:35:46;5.03;;;3.60;;
11228;SDS011;5671;47.936;8.716;2023-04-06T06:38:13;7.30;;;4.23;;
11228;SDS011;5671;47.936;8.716;2023-04-06T06:40:40;6.33;;;3.97;;
11228;SDS011;5671;47.936;8.716;2023-04-06T06:43:07;5.10;;;4.10;;
11228;SDS011;5671;47.936;8.716;2023-04-06T06:45:34;5.23;;;4.50;;
11228;SDS011;5671;47.936;8.716;2023-04-06T06:48:01;6.87;;;4.60;;
11228;SDS011;5671;47.936;8.716;2023-04-06T06:50:29;4.70;;;4.20;;
11228;SDS011;5671;47.936;8.716;2023-04-06T06:52:56;5.37;;;4.27;;
11228;SDS011;5671;47.936;8.716;2023-04-06T06:55:23;5.40;;;4.37;;
11228;SDS011;5671;47.936;8.716;2023-04-06T06:57:50;6.10;;;3.80;;
11228;SDS011;5671;47.936;8.716;2023-04-06T07:00:17;5.30;;;4.40;;
11228;SDS011;5671;47.936;8.716;2023-04-06T07:02:46;7.60;;;4.47;;
11228;SDS011;5671;47.936;8.716;2023-04-06T07:05:12;5.50;;;4.23;;
11228;SDS011;5671;47.936;8.716;2023-04-06T07:07:41;5.13;;;4.30;;
11228;SDS011;5671;47.936;8.716;2023-04-06T07:10:08;5.93;;;4.53;;
11228;SDS011;5671;47.936;8.716;2023-04-06T07:12:36;6.77;;;4.60;;
11228;SDS011;5671;47.936;8.716;2023-04-06T07:15:03;4.60;;;4.00;;
11228;SDS011;5671;47.936;8.716;2023-04-06T07:17:30;4.87;;;4.30;;
11228;SDS011;5671;47.936;8.716;2023-04-06T07:19:57;5.17;;;4.67;;
11228;SDS011;5671;47.936;8.716;2023-04-06T07:22:24;4.53;;;3.90;;
11228;SDS011;5671;47.936;8.716;2023-04-06T07:24:52;6.07;;;4.00;;
11228;SDS011;5671;47.936;8.716;2023-04-06T07:27:19;5.70;;;4.20;;
11228;SDS011;5671;47.936;8.716;2023-04-06T07:29:46;8.30;;;4.33;;
11228;SDS011;5671;47.936;8.716;2023-04-06T07:32:13;7.00;;;4.83;;
11228;SDS011;5671;47.936;8.716;2023-04-06T07:34:40;5.23;;;4.67;;
11228;SDS011;5671;47.936;8.716;2023-04-06T07:37:07;5.63;;;4.90;;
11228;SDS011;5671;47.936;8.716;2023-04-06T07:39:34;9.00;;;4.97;;
11228;SDS011;5671;47.936;8.716;2023-04-06T07:42:02;5.10;;;4.60;;
11228;SDS011;5671;47.936;8.716;2023-04-06T07:44:29;6.53;;;4.70;;
11228;SDS011;5671;47.936;8.716;2023-04-06T07:46:56;8.00;;;5.20;;
11228;SDS011;5671;47.936;8.716;2023-04-06T07:49:23;6.10;;;5.50;;
11228;SDS011;5671;47.936;8.716;2023-04-06T07:51:50;9.43;;;5.33;;
11228;SDS011;5671;47.936;8.716;2023-04-06T07:54:17;6.80;;;5.80;;
11228;SDS011;5671;47.936;8.716;2023-04-06T07:56:44;10.87;;;5.40;;
11228;SDS011;5671;47.936;8.716;2023-04-06T07:59:12;8.07;;;4.90;;
11228;SDS011;5671;47.936;8.716;2023-04-06T08:01:39;6.20;;;4.63;;
11228;SDS011;5671;47.936;8.716;2023-04-06T08:04:06;6.97;;;4.73;;
11228;SDS011;5671;47.936;8.716;2023-04-06T08:06:33;5.47;;;4.47;;
11228;SDS011;5671;47.936;8.716;2023-04-06T08:09:01;7.37;;;4.63;;
11228;SDS011;5671;47.936;8.716;2023-04-06T08:11:28;4.47;;;4.00;;
11228;SDS011;5671;47.936;8.716;2023-04-06T08:13:55;5.53;;;4.30;;
11228;SDS011;5671;47.936;8.716;2023-04-06T08:16:24;5.60;;;3.80;;
11228;SDS011;5671;47.936;8.716;2023-04-06T08:18:51;5.03;;;4.00;;
11228;SDS011;5671;47.936;8.716;2023-04-06T08:21:17;4.00;;;3.60;;
11228;SDS011;5671;47.936;8.716;2023-04-06T08:23:44;6.47;;;4.17;;
11228;SDS011;5671;47.936;8.716;2023-04-06T08:26:12;4.07;;;3.50;;
11228;SDS011;5671;47.936;8.716;2023-04-06T08:28:39;6.77;;;3.70;;
11228;SDS011;5671;47.936;8.716;2023-04-06T08:31:06;5.27;;;4.23;;
11228;SDS011;5671;47.936;8.716;2023-04-06T08:33:34;4.50;;;4.10;;
11228;SDS011;5671;47.936;8.716;2023-04-06T08:36:08;4.70;;;3.57;;
11228;SDS011;5671;47.936;8.716;2023-04-06T08:38:36;4.67;;;3.63;;
11228;SDS011;5671;47.936;8.716;2023-04-06T08:41:06;5.33;;;3.90;;
11228;SDS011;5671;47.936;8.716;2023-04-06T08:43:35;4.37;;;3.83;;
11228;SDS011;5671;47.936;8.716;2023-04-06T08:46:07;4.40;;;3.43;;
11228;SDS011;5671;47.936;8.716;2023-04-06T08:48:36;4.23;;;2.87;;
11228;SDS011;5671;47.936;8.716;2023-04-06T08:51:04;4.90;;;3.57;;
11228;SDS011;5671;47.936;8.716;2023-04-06T08:53:31;5.40;;;2.97;;
11228;SDS011;5671;47.936;8.716;2023-04-06T08:55:58;3.70;;;3.17;;
11228;SDS011;5671;47.936;8.716;2023-04-06T08:58:27;4.40;;;3.40;;
11228;SDS011;5671;47.936;8.716;2023-04-06T09:00:58;4.00;;;3.40;;
11228;SDS011;5671;47.936;8.716;2023-04-06T09:03:26;4.53;;;3.20;;
11228;SDS011;5671;47.936;8.716;2023-04-06T09:06:00;4.33;;;3.10;;
11228;SDS011;5671;47.936;8.716;2023-04-06T09:08:27;3.77;;;3.37;;
11228;SDS011;5671;47.936;8.716;2023-04-06T09:10:54;3.50;;;3.20;;
11228;SDS011;5671;47.936;8.716;2023-04-06T09:13:21;3.93;;;3.40;;
11228;SDS011;5671;47.936;8.716;2023-04-06T09:15:57;4.93;;;3.03;;
11228;SDS011;5671;47.936;8.716;2023-04-06T09:18:27;4.17;;;3.63;;
11228;SDS011;5671;47.936;8.716;2023-04-06T09:21:00;5.10;;;3.50;;
11228;SDS011;5671;47.936;8.716;2023-04-06T09:23:28;3.93;;;3.33;;
11228;SDS011;5671;47.936;8.716;2023-04-06T09:26:08;8.57;;;3.87;;
11228;SDS011;5671;47.936;8.716;2023-04-06T09:28:43;5.93;;;4.50;;
11228;SDS011;5671;47.936;8.716;2023-04-06T09:31:11;4.17;;;3.60;;
11228;SDS011;5671;47.936;8.716;2023-04-06T09:33:38;4.97;;;3.90;;
11228;SDS011;5671;47.936;8.716;2023-04-06T09:36:08;4.73;;;3.70;;
11228;SDS011;5671;47.936;8.716;2023-04-06T09:38:38;5.93;;;3.60;;
11228;SDS011;5671;47.936;8.716;2023-04-06T09:41:20;3.80;;;3.40;;
11228;SDS011;5671;47.936;8.716;2023-04-06T09:43:49;5.90;;;3.73;;
11228;SDS011;5671;47.936;8.716;2023-04-06T09:46:16;4.30;;;3.20;;
11228;SDS011;5671;47.936;8.716;2023-04-06T09:48:43;3.57;;;3.00;;
11228;SDS011;5671;47.936;8.716;2023-04-06T09:51:12;4.73;;;3.33;;
11228;SDS011;5671;47.936;8.716;2023-04-06T09:53:41;4.57;;;3.40;;
11228;SDS011;5671;47.936;8.716;2023-04-06T09:56:16;4.07;;;3.47;;
11228;SDS011;5671;47.936;8.716;2023-04-06T09:58:46;8.60;;;4.50;;
11228;SDS011;5671;47.936;8.716;2023-04-06T10:01:19;4.17;;;3.30;;
11228;SDS011;5671;47.936;8.716;2023-04-06T10:03:50;4.50;;;3.40;;
11228;SDS011;5671;47.936;8.716;2023-04-06T10:06:33;5.27;;;3.37;;
11228;SDS011;5671;47.936;8.716;2023-04-06T10:09:02;3.93;;;3.33;;
11228;SDS011;5671;47.936;8.716;2023-04-06T10:11:33;4.40;;;3.63;;
11228;SDS011;5671;47.936;8.716;2023-04-06T10:14:00;4.30;;;3.83;;
11228;SDS011;5671;47.936;8.716;2023-04-06T10:16:27;4.70;;;3.57;;
11228;SDS011;5671;47.936;8.716;2023-04-06T10:18:56;4.53;;;4.13;;
11228;SDS011;5671;47.936;8.716;2023-04-06T10:21:28;8.20;;;3.83;;
11228;SDS011;5671;47.936;8.716;2023-04-06T10:23:59;3.87;;;3.53;;
11228;SDS011;5671;47.936;8.716;2023-04-06T10:26:27;5.30;;;3.93;;
11228;SDS011;5671;47.936;8.716;2023-04-06T10:28:54;5.63;;;3.33;;
11228;SDS011;5671;47.936;8.716;2023-04-06T10:31:24;5.23;;;4.53;;
11228;SDS011;5671;47.936;8.716;2023-04-06T10:33:53;5.67;;;4.90;;
11228;SDS011;5671;47.936;8.716;2023-04-06T10:36:21;5.37;;;4.70;;
11228;SDS011;5671;47.936;8.716;2023-04-06T10:38:53;5.27;;;4.77;;
11228;SDS011;5671;47.936;8.716;2023-04-06T10:41:23;6.97;;;5.53;;
11228;SDS011;5671;47.936;8.716;2023-04-06T10:43:54;5.10;;;4.60;;
11228;SDS011;5671;47.936;8.716;2023-04-06T10:46:24;4.90;;;4.37;;
11228;SDS011;5671;47.936;8.716;2023-04-06T10:48:52;7.40;;;4.30;;
11228;SDS011;5671;47.936;8.716;2023-04-06T10:51:18;5.83;;;3.80;;
11228;SDS011;5671;47.936;8.716;2023-04-06T10:53:52;7.00;;;4.30;;
11228;SDS011;5671;47.936;8.716;2023-04-06T10:56:21;4.47;;;3.57;;
11228;SDS011;5671;47.936;8.716;2023-04-06T10:58:53;4.07;;;3.67;;
11228;SDS011;5671;47.936;8.716;2023-04-06T11:01:21;4.27;;;3.93;;
11228;SDS011;5671;47.936;8.716;2023-04-06T11:03:49;4.30;;;3.90;;
11228;SDS011;5671;47.936;8.716;2023-04-06T11:06:17;7.77;;;3.70;;
11228;SDS011;5671;47.936;8.716;2023-04-06T11:08:45;4.30;;;3.60;;
11228;SDS011;5671;47.936;8.716;2023-04-06T11:11:13;4.60;;;4.17;;
11228;SDS011;5671;47.936;8.716;2023-04-06T11:13:45;5.00;;;4.10;;
11228;SDS011;5671;47.936;8.716;2023-04-06T11:16:14;5.90;;;4.03;;
11228;SDS011;5671;47.936;8.716;2023-04-06T11:18:48;4.93;;;4.23;;
11228;SDS011;5671;47.936;8.716;2023-04-06T11:21:16;5.23;;;3.87;;
11228;SDS011;5671;47.936;8.716;2023-04-06T11:23:43;4.07;;;3.67;;
11228;SDS011;5671;47.936;8.716;2023-04-06T11:26:11;4.23;;;3.80;;
11228;SDS011;5671;47.936;8.716;2023-04-06T11:28:39;4.80;;;4.00;;
11228;SDS011;5671;47.936;8.716;2023-04-06T11:31:10;5.47;;;3.80;;
11228;SDS011;5671;47.936;8.716;2023-04-06T11:33:37;5.53;;;4.37;;
11228;SDS011;5671;47.936;8.716;2023-04-06T11:36:05;4.53;;;4.10;;
11228;SDS011;5671;47.936;8.716;2023-04-06T11:38:33;4.50;;;4.10;;
11228;SDS011;5671;47.936;8.716;2023-04-06T11:41:00;4.20;;;3.80;;
11228;SDS011;5671;47.936;8.716;2023-04-06T11:43:28;6.27;;;4.03;;
11228;SDS011;5671;47.936;8.716;2023-04-06T11:45:59;3.50;;;3.20;;
11228;SDS011;5671;47.936;8.716;2023-04-06T11:48:29;6.07;;;4.33;;
11228;SDS011;5671;47.936;8.716;2023-04-06T11:50:56;5.13;;;4.50;;
11228;SDS011;5671;47.936;8.716;2023-04-06T11:53:26;4.60;;;3.77;;
11228;SDS011;5671;47.936;8.716;2023-04-06T11:55:53;4.60;;;3.80;;
11228;SDS011;5671;47.936;8.716;2023-04-06T11:58:20;4.77;;;4.00;;
11228;SDS011;5671;47.936;8.716;2023-04-06T12:00:47;4.47;;;4.07;;
11228;SDS011;5671;47.936;8.716;2023-04-06T12:03:13;4.60;;;3.60;;
11228;SDS011;5671;47.936;8.716;2023-04-06T12:05:42;4.63;;;4.23;;
11228;SDS011;5671;47.936;8.716;2023-04-06T12:08:10;4.90;;;4.40;;
11228;SDS011;5671;47.936;8.716;2023-04-06T12:10:36;5.47;;;4.10;;
11228;SDS011;5671;47.936;8.716;2023-04-06T12:13:03;4.10;;;3.70;;
11228;SDS011;5671;47.936;8.716;2023-04-06T12:15:30;4.50;;;3.93;;
11228;SDS011;5671;47.936;8.716;2023-04-06T12:17:57;5.37;;;4.40;;
11228;SDS011;5671;47.936;8.716;2023-04-06T12:20:24;4.67;;;4.13;;
11228;SDS011;5671;47.936;8.716;2023-04-06T12:22:52;4.40;;;3.60;;
11228;SDS011;5671;47.936;8.716;2023-04-06T12:25:19;7.50;;;4.20;;
11228;SDS011;5671;47.936;8.716;2023-04-06T12:27:46;5.03;;;4.53;;
11228;SDS011;5671;47.936;8.716;2023-04-06T12:30:13;4.60;;;3.73;;
11228;SDS011;5671;47.936;8.716;2023-04-06T12:32:41;4.67;;;4.27;;
11228;SDS011;5671;47.936;8.716;2023-04-06T12:35:08;5.23;;;4.30;;
11228;SDS011;5671;47.936;8.716;2023-04-06T12:37:36;4.83;;;4.37;;
11228;SDS011;5671;47.936;8.716;2023-04-06T12:40:05;4.97;;;4.47;;
11228;SDS011;5671;47.936;8.716;2023-04-06T12:42:35;4.83;;;4.33;;
11228;SDS011;5671;47.936;8.716;2023-04-06T12:45:02;4.47;;;3.97;;
11228;SDS011;5671;47.936;8.716;2023-04-06T12:47:29;5.63;;;5.10;;
11228;SDS011;5671;47.936;8.716;2023-04-06T12:49:56;4.43;;;4.03;;
11228;SDS011;5671;47.936;8.716;2023-04-06T12:52:23;4.63;;;4.23;;
11228;SDS011;5671;47.936;8.716;2023-04-06T12:54:50;5.50;;;5.00;;
11228;SDS011;5671;47.936;8.716;2023-04-06T12:57:19;5.10;;;4.60;;
11228;SDS011;5671;47.936;8.716;2023-04-06T12:59:46;5.10;;;4.33;;
11228;SDS011;5671;47.936;8.716;2023-04-06T13:02:13;4.93;;;4.43;;
11228;SDS011;5671;47.936;8.716;2023-04-06T13:04:39;6.03;;;5.33;;
11228;SDS011;5671;47.936;8.716;2023-04-06T13:07:06;6.27;;;4.90;;
11228;SDS011;5671;47.936;8.716;2023-04-06T13:09:33;6.57;;;4.60;;
11228;SDS011;5671;47.936;8.716;2023-04-06T13:12:00;6.57;;;4.50;;
11228;SDS011;5671;47.936;8.716;2023-04-06T13:14:28;5.37;;;4.87;;
11228;SDS011;5671;47.936;8.716;2023-04-06T13:16:56;5.57;;;4.80;;
11228;SDS011;5671;47.936;8.716;2023-04-06T13:19:23;5.87;;;5.27;;
11228;SDS011;5671;47.936;8.716;2023-04-06T13:21:50;7.13;;;4.67;;
11228;SDS011;5671;47.936;8.716;2023-04-06T13:24:17;5.67;;;4.17;;
11228;SDS011;5671;47.936;8.716;2023-04-06T13:26:44;5.47;;;4.23;;
11228;SDS011;5671;47.936;8.716;2023-04-06T13:29:11;8.07;;;5.03;;
11228;SDS011;5671;47.936;8.716;2023-04-06T13:31:39;5.43;;;4.70;;
11228;SDS011;5671;47.936;8.716;2023-04-06T13:34:06;4.77;;;4.20;;
11228;SDS011;5671;47.936;8.716;2023-04-06T13:36:33;7.10;;;4.40;;
11228;SDS011;5671;47.936;8.716;2023-04-06T13:39:00;5.00;;;4.30;;
11228;SDS011;5671;47.936;8.716;2023-04-06T13:41:27;4.87;;;4.40;;
11228;SDS011;5671;47.936;8.716;2023-04-06T13:43:54;6.60;;;4.07;;
11228;SDS011;5671;47.936;8.716;2023-04-06T13:46:23;6.13;;;3.83;;
11228;SDS011;5671;47.936;8.716;2023-04-06T13:48:51;7.07;;;4.00;;
11228;SDS011;5671;47.936;8.716;2023-04-06T13:51:18;4.90;;;3.60;;
11228;SDS011;5671;47.936;8.716;2023-04-06T13:53:45;3.80;;;3.30;;
11228;SDS011;5671;47.936;8.716;2023-04-06T13:56:12;3.80;;;3.37;;
11228;SDS011;5671;47.936;8.716;2023-04-06T13:58:38;5.87;;;4.03;;
11228;SDS011;5671;47.936;8.716;2023-04-06T14:01:06;5.80;;;4.33;;
11228;SDS011;5671;47.936;8.716;2023-04-06T14:03:34;4.37;;;3.97;;
11228;SDS011;5671;47.936;8.716;2023-04-06T14:06:08;4.77;;;4.00;;
11228;SDS011;5671;47.936;8.716;2023-04-06T14:08:36;4.77;;;4.10;;
11228;SDS011;5671;47.936;8.716;2023-04-06T14:11:03;4.37;;;3.90;;
11228;SDS011;5671;47.936;8.716;2023-04-06T14:13:33;5.30;;;4.60;;
11228;SDS011;5671;47.936;8.716;2023-04-06T14:15:59;5.00;;;3.87;;
11228;SDS011;5671;47.936;8.716;2023-04-06T14:18:26;4.60;;;3.40;;
11228;SDS011;5671;47.936;8.716;2023-04-06T14:20:56;4.67;;;3.90;;
11228;SDS011;5671;47.936;8.716;2023-04-06T14:23:25;4.03;;;3.40;;
11228;SDS011;5671;47.936;8.716;2023-04-06T14:26:00;4.40;;;3.53;;
11228;SDS011;5671;47.936;8.716;2023-04-06T14:28:29;6.07;;;4.23;;
11228;SDS011;5671;47.936;8.716;2023-04-06T14:30:56;5.03;;;3.80;;
11228;SDS011;5671;47.936;8.716;2023-04-06T14:33:23;6.13;;;3.53;;
11228;SDS011;5671;47.936;8.716;2023-04-06T14:35:49;4.23;;;3.57;;
11228;SDS011;5671;47.936;8.716;2023-04-06T14:38:16;4.73;;;3.13;;
11228;SDS011;5671;47.936;8.716;2023-04-06T14:40:44;5.07;;;3.00;;
11228;SDS011;5671;47.936;8.716;2023-04-06T14:43:11;3.43;;;3.03;;
11228;SDS011;5671;47.936;8.716;2023-04-06T14:45:38;4.47;;;3.17;;
11228;SDS011;5671;47.936;8.716;2023-04-06T14:48:05;5.00;;;3.53;;
11228;SDS011;5671;47.936;8.716;2023-04-06T14:50:33;3.50;;;3.20;;
11228;SDS011;5671;47.936;8.716;2023-04-06T14:53:00;5.57;;;3.43;;
11228;SDS011;5671;47.936;8.716;2023-04-06T14:55:27;4.17;;;3.00;;
11228;SDS011;5671;47.936;8.716;2023-04-06T14:57:55;3.50;;;3.20;;
11228;SDS011;5671;47.936;8.716;2023-04-06T15:00:22;6.53;;;3.30;;
11228;SDS011;5671;47.936;8.716;2023-04-06T15:02:49;5.10;;;3.33;;